Time,TemperatureF,DewpointF,PressureIn,WindDirection,WindDirectionDegrees,WindSpeedMPH,WindSpeedGustMPH,Humidity,HourlyPrecipIn,Conditions,Clouds,dailyrainin,SoftwareType,DateUTC
2013-10-15 00:14:00,55.0,54.0,30.21,South,171,1.0,-999.0,98,-99.99,,,-99.99,,2013-10-15 04:14:00,
2013-10-15 00:24:00,55.0,54.0,30.21,South,171,0.0,-999.0,98,-99.99,,,-99.99,,2013-10-15 04:24:00,
2013-10-15 00:43:00,55.0,54.0,30.21,South,171,0.0,-999.0,98,-99.99,,,-99.99,,2013-10-15 04:43:00,
2013-10-15 00:54:00,55.0,54.0,30.22,South,171,0.0,-999.0,98,-99.99,,,-99.99,,2013-10-15 04:54:00,
2013-10-15 01:13:00,55.0,54.0,30.22,South,171,0.0,-999.0,98,-99.99,,,-99.99,,2013-10-15 05:13:00,
2013-10-15 01:22:00,55.0,54.0,30.21,South,171,0.0,-999.0,98,-99.99,,,-99.99,,2013-10-15 05:22:00,
2013-10-15 01:42:00,55.0,54.0,30.21,South,171,0.0,-999.0,98,-99.99,,,-99.99,,2013-10-15 05:42:00,
2013-10-15 01:52:00,55.0,54.0,30.20,South,171,0.0,-999.0,97,-99.99,,,-99.99,,2013-10-15 05:52:00,
2013-10-15 02:12:00,54.0,53.0,30.20,South,171,0.0,-999.0,97,-99.99,,,-99.99,,2013-10-15 06:12:00,
2013-10-15 02:22:00,54.0,53.0,30.20,South,171,0.0,-999.0,97,-99.99,,,-99.99,,2013-10-15 06:22:00,
2013-10-15 02:43:00,53.0,52.0,30.20,South,171,0.0,-999.0,97,-99.99,,,-99.99,,2013-10-15 06:43:00,
2013-10-15 08:22:00,47.0,46.0,30.18,South,171,0.0,-999.0,98,-99.99,,,-99.99,,2013-10-15 12:22:00,
2013-10-15 08:42:00,47.0,46.0,30.19,South,171,0.0,-999.0,98,-99.99,,,-99.99,,2013-10-15 12:42:00,
2013-10-15 08:52:00,48.0,47.0,30.19,South,171,0.0,-999.0,98,-99.99,,,-99.99,,2013-10-15 12:52:00,
2013-10-15 09:11:00,48.0,47.0,30.19,South,171,0.0,-999.0,98,-99.99,,,-99.99,,2013-10-15 13:11:00,
2013-10-15 09:21:00,48.0,48.0,30.19,South,171,0.0,-999.0,99,-99.99,,,-99.99,,2013-10-15 13:21:00,
2013-10-15 09:42:00,49.0,49.0,30.19,South,171,0.0,-999.0,99,-99.99,,,-99.99,,2013-10-15 13:42:00,
2013-10-15 09:52:00,49.0,49.0,30.19,South,171,0.0,-999.0,99,-99.99,,,-99.99,,2013-10-15 13:52:00,
2013-10-15 10:12:00,49.0,49.0,30.19,South,171,0.0,-999.0,99,-99.99,,,-99.99,,2013-10-15 14:12:00,
2013-10-15 10:22:00,50.0,50.0,30.20,SSW,202,0.0,-999.0,99,-99.99,,,-99.99,,2013-10-15 14:22:00,
2013-10-15 10:42:00,51.0,51.0,30.20,SSW,202,0.0,-999.0,99,-99.99,,,-99.99,,2013-10-15 14:42:00,
2013-10-15 10:52:00,52.0,52.0,30.19,SSE,167,2.0,-999.0,99,-99.99,,,-99.99,,2013-10-15 14:52:00,
2013-10-15 11:11:00,53.0,53.0,30.19,WNW,294,1.0,-999.0,99,-99.99,,,-99.99,,2013-10-15 15:11:00,
2013-10-15 11:22:00,55.0,54.0,30.18,SE,136,1.0,-999.0,96,-99.99,,,-99.99,,2013-10-15 15:22:00,
2013-10-15 11:44:00,56.0,52.0,30.18,SE,131,3.0,-999.0,87,-99.99,,,-99.99,,2013-10-15 15:44:00,
2013-10-15 11:53:00,57.0,51.0,30.17,SE,141,4.0,-999.0,80,-99.99,,,-99.99,,2013-10-15 15:53:00,
2013-10-15 12:13:00,59.0,52.0,30.17,ESE,118,3.0,-999.0,77,-99.99,,,-99.99,,2013-10-15 16:13:00,
2013-10-15 12:23:00,60.0,52.0,30.17,SSW,206,2.0,-999.0,74,-99.99,,,-99.99,,2013-10-15 16:23:00,
2013-10-15 12:42:00,61.0,52.0,30.17,SE,134,2.0,-999.0,72,-99.99,,,-99.99,,2013-10-15 16:42:00,
2013-10-15 12:53:00,61.0,52.0,30.16,ESE,117,3.0,-999.0,73,-99.99,,,-99.99,,2013-10-15 16:53:00,
2013-10-15 13:12:00,62.0,53.0,30.16,SE,139,2.0,-999.0,72,-99.99,,,-99.99,,2013-10-15 17:12:00,
2013-10-15 13:22:00,63.0,54.0,30.15,SSE,148,2.0,-999.0,73,-99.99,,,-99.99,,2013-10-15 17:22:00,
2013-10-15 13:42:00,64.0,53.0,30.14,SSE,159,4.0,-999.0,68,-99.99,,,-99.99,,2013-10-15 17:42:00,
2013-10-15 13:53:00,65.0,52.0,30.14,SE,140,2.0,-999.0,63,-99.99,,,-99.99,,2013-10-15 17:53:00,
2013-10-15 14:12:00,64.0,52.0,30.13,SSE,153,3.0,-999.0,64,-99.99,,,-99.99,,2013-10-15 18:12:00,
2013-10-15 14:22:00,64.0,52.0,30.12,SE,146,2.0,-999.0,65,-99.99,,,-99.99,,2013-10-15 18:22:00,
2013-10-15 14:42:00,64.0,52.0,30.11,SSE,168,3.0,-999.0,65,-99.99,,,-99.99,,2013-10-15 18:42:00,
2013-10-15 14:52:00,65.0,51.0,30.11,SSE,149,4.0,-999.0,60,-99.99,,,-99.99,,2013-10-15 18:52:00,
2013-10-15 15:12:00,64.0,51.0,30.10,SSE,167,3.0,-999.0,62,-99.99,,,-99.99,,2013-10-15 19:12:00,
2013-10-15 15:22:00,64.0,51.0,30.10,SSE,165,3.0,-999.0,63,-99.99,,,-99.99,,2013-10-15 19:22:00,
2013-10-15 15:42:00,65.0,53.0,30.10,SE,146,1.0,-999.0,66,-99.99,,,-99.99,,2013-10-15 19:42:00,
2013-10-15 15:52:00,65.0,52.0,30.10,SSE,156,2.0,-999.0,63,-99.99,,,-99.99,,2013-10-15 19:52:00,
2013-10-15 16:12:00,65.0,52.0,30.09,SSE,148,2.0,-999.0,62,-99.99,,,-99.99,,2013-10-15 20:12:00,
2013-10-15 16:22:00,66.0,52.0,30.09,SSE,150,3.0,-999.0,61,-99.99,,,-99.99,,2013-10-15 20:22:00,
2013-10-15 16:42:00,65.0,51.0,30.09,ESE,121,3.0,-999.0,60,-99.99,,,-99.99,,2013-10-15 20:42:00,
2013-10-15 16:52:00,65.0,52.0,30.09,ESE,123,1.0,-999.0,63,-99.99,,,-99.99,,2013-10-15 20:52:00,
2013-10-15 17:13:00,64.0,51.0,30.08,SSE,157,3.0,-999.0,63,-99.99,,,-99.99,,2013-10-15 21:13:00,
2013-10-15 17:22:00,64.0,52.0,30.09,SE,134,2.0,-999.0,64,-99.99,,,-99.99,,2013-10-15 21:22:00,
2013-10-15 17:44:00,64.0,50.0,30.09,South,169,0.0,-999.0,61,-99.99,,,-99.99,,2013-10-15 21:44:00,
2013-10-15 17:54:00,64.0,52.0,30.09,South,169,0.0,-999.0,64,-99.99,,,-99.99,,2013-10-15 21:54:00,
2013-10-15 18:23:00,63.0,53.0,30.09,South,169,0.0,-999.0,69,-99.99,,,-99.99,,2013-10-15 22:23:00,
2013-10-15 18:43:00,61.0,52.0,30.09,SE,144,1.0,-999.0,72,-99.99,,,-99.99,,2013-10-15 22:43:00,
2013-10-15 18:53:00,61.0,52.0,30.09,SE,144,0.0,-999.0,71,-99.99,,,-99.99,,2013-10-15 22:53:00,
2013-10-15 19:12:00,60.0,51.0,30.09,SE,144,0.0,-999.0,73,-99.99,,,-99.99,,2013-10-15 23:12:00,
2013-10-15 19:22:00,59.0,51.0,30.09,SE,144,0.0,-999.0,76,-99.99,,,-99.99,,2013-10-15 23:22:00,
2013-10-15 19:43:00,59.0,52.0,30.09,SE,144,0.0,-999.0,77,-99.99,,,-99.99,,2013-10-15 23:43:00,
2013-10-15 19:52:00,58.0,51.0,30.09,SE,144,0.0,-999.0,78,-99.99,,,-99.99,,2013-10-15 23:52:00,
2013-10-15 20:12:00,57.0,51.0,30.09,SE,144,0.0,-999.0,80,-99.99,,,-99.99,,2013-10-16 00:12:00,
2013-10-15 20:22:00,56.0,51.0,30.09,SE,144,0.0,-999.0,83,-99.99,,,-99.99,,2013-10-16 00:22:00,
2013-10-15 20:42:00,55.0,51.0,30.09,SE,144,0.0,-999.0,85,-99.99,,,-99.99,,2013-10-16 00:42:00,
2013-10-15 20:52:00,55.0,51.0,30.09,SE,144,0.0,-999.0,86,-99.99,,,-99.99,,2013-10-16 00:52:00,
2013-10-15 21:11:00,55.0,51.0,30.09,SE,144,0.0,-999.0,87,-99.99,,,-99.99,,2013-10-16 01:11:00,
2013-10-15 21:22:00,55.0,51.0,30.09,SE,144,0.0,-999.0,87,-99.99,,,-99.99,,2013-10-16 01:22:00,
2013-10-15 21:42:00,54.0,50.0,30.09,SE,144,0.0,-999.0,87,-99.99,,,-99.99,,2013-10-16 01:42:00,
2013-10-15 21:52:00,54.0,51.0,30.09,SE,144,0.0,-999.0,88,-99.99,,,-99.99,,2013-10-16 01:52:00,
2013-10-15 22:12:00,54.0,51.0,30.09,SE,144,1.0,-999.0,89,-99.99,,,-99.99,,2013-10-16 02:12:00,
2013-10-15 22:22:00,54.0,51.0,30.10,SE,144,0.0,-999.0,89,-99.99,,,-99.99,,2013-10-16 02:22:00,
2013-10-15 22:42:00,54.0,51.0,30.09,SE,144,0.0,-999.0,89,-99.99,,,-99.99,,2013-10-16 02:42:00,
2013-10-15 22:52:00,53.0,50.0,30.10,SE,144,0.0,-999.0,90,-99.99,,,-99.99,,2013-10-16 02:52:00,
2013-10-15 23:11:00,53.0,50.0,30.11,SE,144,0.0,-999.0,89,-99.99,,,-99.99,,2013-10-16 03:11:00,
2013-10-15 23:22:00,53.0,50.0,30.11,SE,144,0.0,-999.0,89,-99.99,,,-99.99,,2013-10-16 03:22:00,
2013-10-15 23:45:00,53.0,50.0,30.11,SE,144,0.0,-999.0,89,-99.99,,,-99.99,,2013-10-16 03:45:00,
2013-10-15 23:54:00,52.0,49.0,30.11,SE,144,0.0,-999.0,91,-99.99,,,-99.99,,2013-10-16 03:54:00,